sensor_id;sensor_type;location;lat;lon;timestamp;pressure;altitude;pressure_sealevel;temperature;humidity
42621;BME280;28252;53.336;-6.298;2023-03-02T00:00:22;102490.75;;;21.37;91.26
42621;BME280;28252;53.336;-6.298;2023-03-02T00:00:56;102497.03;;;21.38;91.19
42621;BME280;28252;53.336;-6.298;2023-03-02T00:01:38;102495.19;;;21.38;91.61
42621;BME280;28252;53.336;-6.298;2023-03-02T00:02:16;102489.03;;;21.36;90.84
42621;BME280;28252;53.336;-6.298;2023-03-02T00:02:51;102489.91;;;21.37;91.15
42621;BME280;28252;53.336;-6.298;2023-03-02T00:03:22;102492.75;;;21.35;91.31
42621;BME280;28252;53.336;-6.298;2023-03-02T00:03:56;102495.47;;;21.35;91.59
42621;BME280;28252;53.336;-6.298;2023-03-02T00:04:32;102488.19;;;21.36;91.29
42621;BME280;28252;53.336;-6.298;2023-03-02T00:05:10;102492.75;;;21.35;91.38
42621;BME280;28252;53.336;-6.298;2023-03-02T00:05:44;102487.47;;;21.34;91.53
42621;BME280;28252;53.336;-6.298;2023-03-02T00:06:23;102491.03;;;21.34;91.28
42621;BME280;28252;53.336;-6.298;2023-03-02T00:06:55;102477.47;;;21.34;91.08
42621;BME280;28252;53.336;-6.298;2023-03-02T00:07:32;102481.16;;;21.33;91.67
42621;BME280;28252;53.336;-6.298;2023-03-02T00:08:04;102485.59;;;21.34;91.55
42621;BME280;28252;53.336;-6.298;2023-03-02T00:08:39;102483.03;;;21.33;91.36
42621;BME280;28252;53.336;-6.298;2023-03-02T00:09:13;102482.19;;;21.32;91.42
42621;BME280;28252;53.336;-6.298;2023-03-02T00:09:44;102480.44;;;21.31;91.41
42621;BME280;28252;53.336;-6.298;2023-03-02T00:10:17;102475.03;;;21.31;91.28
42621;BME280;28252;53.336;-6.298;2023-03-02T00:10:50;102480.44;;;21.31;91.46
42621;BME280;28252;53.336;-6.298;2023-03-02T00:11:24;102478.75;;;21.30;91.38
42621;BME280;28252;53.336;-6.298;2023-03-02T00:12:02;102483.28;;;21.30;91.08
42621;BME280;28252;53.336;-6.298;2023-03-02T00:12:36;102468.16;;;21.27;91.20
42621;BME280;28252;53.336;-6.298;2023-03-02T00:13:10;102480.72;;;21.28;91.59
42621;BME280;28252;53.336;-6.298;2023-03-02T00:13:43;102479.00;;;21.27;91.71
42621;BME280;28252;53.336;-6.298;2023-03-02T00:14:19;102471.88;;;21.26;91.51
42621;BME280;28252;53.336;-6.298;2023-03-02T00:14:56;102474.56;;;21.26;91.38
42621;BME280;28252;53.336;-6.298;2023-03-02T00:15:34;102477.28;;;21.26;91.91
42621;BME280;28252;53.336;-6.298;2023-03-02T00:16:08;102472.00;;;21.24;91.39
42621;BME280;28252;53.336;-6.298;2023-03-02T00:16:41;102477.41;;;21.24;91.84
42621;BME280;28252;53.336;-6.298;2023-03-02T00:17:17;102468.44;;;21.24;91.38
42621;BME280;28252;53.336;-6.298;2023-03-02T00:17:59;102479.28;;;21.24;91.32
42621;BME280;28252;53.336;-6.298;2023-03-02T00:18:34;102477.53;;;21.23;91.75
42621;BME280;28252;53.336;-6.298;2023-03-02T00:19:09;102478.56;;;21.22;91.80
42621;BME280;28252;53.336;-6.298;2023-03-02T00:19:43;102479.53;;;21.21;91.44
42621;BME280;28252;53.336;-6.298;2023-03-02T00:20:19;102481.41;;;21.20;91.75
42621;BME280;28252;53.336;-6.298;2023-03-02T00:20:54;102475.13;;;21.20;91.71
42621;BME280;28252;53.336;-6.298;2023-03-02T00:21:25;102471.53;;;21.19;92.05
42621;BME280;28252;53.336;-6.298;2023-03-02T00:21:59;102477.97;;;21.18;92.22
42621;BME280;28252;53.336;-6.298;2023-03-02T00:22:30;102477.09;;;21.18;91.88
42621;BME280;28252;53.336;-6.298;2023-03-02T00:23:03;102475.38;;;21.17;91.96
42621;BME280;28252;53.336;-6.298;2023-03-02T00:23:34;102472.69;;;21.17;91.50
42621;BME280;28252;53.336;-6.298;2023-03-02T00:24:07;102478.09;;;21.17;91.86
42621;BME280;28252;53.336;-6.298;2023-03-02T00:24:45;102479.06;;;21.16;91.91
42621;BME280;28252;53.336;-6.298;2023-03-02T00:25:16;102478.22;;;21.15;92.24
42621;BME280;28252;53.336;-6.298;2023-03-02T00:25:50;102472.94;;;21.14;91.70
42621;BME280;28252;53.336;-6.298;2023-03-02T00:26:23;102473.78;;;21.14;91.61
42621;BME280;28252;53.336;-6.298;2023-03-02T00:26:54;102467.53;;;21.14;91.90
42621;BME280;28252;53.336;-6.298;2023-03-02T00:27:30;102464.94;;;21.12;91.67
42621;BME280;28252;53.336;-6.298;2023-03-02T00:28:01;102470.38;;;21.12;91.55
42621;BME280;28252;53.336;-6.298;2023-03-02T00:28:35;102469.50;;;21.12;92.31
42621;BME280;28252;53.336;-6.298;2023-03-02T00:29:08;102468.50;;;21.13;91.59
42621;BME280;28252;53.336;-6.298;2023-03-02T00:29:41;102472.34;;;21.10;92.02
42621;BME280;28252;53.336;-6.298;2023-03-02T00:30:17;102466.94;;;21.10;92.04
42621;BME280;28252;53.336;-6.298;2023-03-02T00:30:52;102467.06;;;21.08;91.86
42621;BME280;28252;53.336;-6.298;2023-03-02T00:31:28;102469.78;;;21.08;91.85
42621;BME280;28252;53.336;-6.298;2023-03-02T00:31:59;102472.47;;;21.08;91.73
42621;BME280;28252;53.336;-6.298;2023-03-02T00:32:50;102472.47;;;21.08;92.05
42621;BME280;28252;53.336;-6.298;2023-03-02T00:33:28;102462.63;;;21.07;92.27
42621;BME280;28252;53.336;-6.298;2023-03-02T00:34:03;102459.91;;;21.07;91.83
42621;BME280;28252;53.336;-6.298;2023-03-02T00:34:36;102462.75;;;21.06;92.24
42621;BME280;28252;53.336;-6.298;2023-03-02T00:35:11;102457.34;;;21.06;92.27
42621;BME280;28252;53.336;-6.298;2023-03-02T00:35:42;102461.06;;;21.05;91.97
42621;BME280;28252;53.336;-6.298;2023-03-02T00:36:19;102461.06;;;21.05;92.12
42621;BME280;28252;53.336;-6.298;2023-03-02T00:36:53;102462.91;;;21.04;91.81
42621;BME280;28252;53.336;-6.298;2023-03-02T00:37:27;102455.78;;;21.03;92.29
42621;BME280;28252;53.336;-6.298;2023-03-02T00:38:00;102454.91;;;21.03;91.80
42621;BME280;28252;53.336;-6.298;2023-03-02T00:38:33;102456.75;;;21.02;92.36
42621;BME280;28252;53.336;-6.298;2023-03-02T00:39:11;102457.75;;;21.01;92.28
42621;BME280;28252;53.336;-6.298;2023-03-02T00:39:46;102461.44;;;21.00;92.01
42621;BME280;28252;53.336;-6.298;2023-03-02T00:40:22;102456.03;;;21.00;91.91
42621;BME280;28252;53.336;-6.298;2023-03-02T00:40:59;102459.72;;;20.99;92.40
42621;BME280;28252;53.336;-6.298;2023-03-02T00:41:30;102462.44;;;20.99;92.11
42621;BME280;28252;53.336;-6.298;2023-03-02T00:42:06;102458.88;;;20.99;92.07
42621;BME280;28252;53.336;-6.298;2023-03-02T00:42:41;102455.44;;;20.97;92.02
42621;BME280;28252;53.336;-6.298;2023-03-02T00:43:15;102457.31;;;20.96;92.05
42621;BME280;28252;53.336;-6.298;2023-03-02T00:43:46;102459.13;;;20.96;91.90
42621;BME280;28252;53.336;-6.298;2023-03-02T00:44:20;102453.84;;;20.94;92.20
42621;BME280;28252;53.336;-6.298;2023-03-02T00:44:58;102448.59;;;20.93;92.45
42621;BME280;28252;53.336;-6.298;2023-03-02T00:45:34;102449.44;;;20.93;92.23
42621;BME280;28252;53.336;-6.298;2023-03-02T00:46:18;102452.13;;;20.93;92.18
42621;BME280;28252;53.336;-6.298;2023-03-02T00:46:52;102442.28;;;20.92;92.69
42621;BME280;28252;53.336;-6.298;2023-03-02T00:47:23;102444.16;;;20.92;92.39
42621;BME280;28252;53.336;-6.298;2023-03-02T00:47:54;102446.00;;;20.91;92.49
42621;BME280;28252;53.336;-6.298;2023-03-02T00:48:27;102445.13;;;20.90;92.01
42621;BME280;28252;53.336;-6.298;2023-03-02T00:49:02;102448.84;;;20.89;92.41
42621;BME280;28252;53.336;-6.298;2023-03-02T00:49:33;102442.53;;;20.89;92.13
42621;BME280;28252;53.336;-6.298;2023-03-02T00:50:10;102451.69;;;20.88;92.62
42621;BME280;28252;53.336;-6.298;2023-03-02T00:50:43;102440.00;;;20.87;92.29
42621;BME280;28252;53.336;-6.298;2023-03-02T00:51:17;102439.13;;;20.87;92.53
42621;BME280;28252;53.336;-6.298;2023-03-02T00:51:51;102443.69;;;20.86;92.78
42621;BME280;28252;53.336;-6.298;2023-03-02T00:52:26;102448.25;;;20.86;92.56
42621;BME280;28252;53.336;-6.298;2023-03-02T00:53:02;102445.53;;;20.86;92.71
42621;BME280;28252;53.336;-6.298;2023-03-02T00:53:34;102441.94;;;20.85;92.27
42621;BME280;28252;53.336;-6.298;2023-03-02T00:54:08;102442.97;;;20.84;92.66
42621;BME280;28252;53.336;-6.298;2023-03-02T00:54:41;102442.09;;;20.84;92.18
42621;BME280;28252;53.336;-6.298;2023-03-02T00:55:13;102447.50;;;20.84;92.77
42621;BME280;28252;53.336;-6.298;2023-03-02T00:55:54;102453.78;;;20.84;92.70
42621;BME280;28252;53.336;-6.298;2023-03-02T00:56:29;102445.81;;;20.83;92.78
42621;BME280;28252;53.336;-6.298;2023-03-02T00:57:00;102446.78;;;20.82;92.51
42621;BME280;28252;53.336;-6.298;2023-03-02T00:57:31;102444.06;;;20.82;93.11
42621;BME280;28252;53.336;-6.298;2023-03-02T00:58:05;102451.34;;;20.81;93.04
42621;BME280;28252;53.336;-6.298;2023-03-02T00:58:40;102447.78;;;20.81;92.65
42621;BME280;28252;53.336;-6.298;2023-03-02T00:59:11;102450.50;;;20.81;92.33
42621;BME280;28252;53.336;-6.298;2023-03-02T00:59:59;102450.50;;;20.81;93.12
42621;BME280;28252;53.336;-6.298;2023-03-02T01:00:44;102445.22;;;20.79;92.76
42621;BME280;28252;53.336;-6.298;2023-03-02T01:01:18;102440.78;;;20.78;93.15
42621;BME280;28252;53.336;-6.298;2023-03-02T01:01:53;102442.50;;;20.79;92.79
42621;BME280;28252;53.336;-6.298;2023-03-02T01:02:31;102439.91;;;20.78;93.17
42621;BME280;28252;53.336;-6.298;2023-03-02T01:03:04;102442.63;;;20.78;93.25
42621;BME280;28252;53.336;-6.298;2023-03-02T01:03:35;102442.63;;;20.78;93.17
42621;BME280;28252;53.336;-6.298;2023-03-02T01:04:09;102444.63;;;20.76;93.55
42621;BME280;28252;53.336;-6.298;2023-03-02T01:04:41;102441.91;;;20.76;93.38
42621;BME280;28252;53.336;-6.298;2023-03-02T01:05:16;102441.03;;;20.75;93.14
42621;BME280;28252;53.336;-6.298;2023-03-02T01:09:28;102446.69;;;20.72;93.37
42621;BME280;28252;53.336;-6.298;2023-03-02T01:10:07;102435.16;;;20.70;92.88
42621;BME280;28252;53.336;-6.298;2023-03-02T01:10:40;102443.28;;;20.70;93.27
42621;BME280;28252;53.336;-6.298;2023-03-02T01:11:13;102439.72;;;20.69;92.90
42621;BME280;28252;53.336;-6.298;2023-03-02T01:11:44;102437.00;;;20.69;93.31
42621;BME280;28252;53.336;-6.298;2023-03-02T01:12:16;102441.56;;;20.69;93.46
42621;BME280;28252;53.336;-6.298;2023-03-02T01:12:49;102437.97;;;20.68;93.08
42621;BME280;28252;53.336;-6.298;2023-03-02T01:13:22;102435.28;;;20.68;93.34
42621;BME280;28252;53.336;-6.298;2023-03-02T01:13:56;102431.84;;;20.66;93.61
42621;BME280;28252;53.336;-6.298;2023-03-02T01:14:31;102444.41;;;20.67;93.18
42621;BME280;28252;53.336;-6.298;2023-03-02T01:15:07;102439.97;;;20.66;93.33
42621;BME280;28252;53.336;-6.298;2023-03-02T01:15:44;102435.56;;;20.65;93.34
42621;BME280;28252;53.336;-6.298;2023-03-02T01:16:15;102435.56;;;20.65;93.59
42621;BME280;28252;53.336;-6.298;2023-03-02T01:16:50;102439.25;;;20.64;93.58
42621;BME280;28252;53.336;-6.298;2023-03-02T01:17:26;102435.69;;;20.64;93.64
42621;BME280;28252;53.336;-6.298;2023-03-02T01:18:01;102436.66;;;20.63;94.05
42621;BME280;28252;53.336;-6.298;2023-03-02T01:18:37;102440.31;;;20.62;93.44
42621;BME280;28252;53.336;-6.298;2023-03-02T01:19:15;102430.41;;;20.62;93.55
42621;BME280;28252;53.336;-6.298;2023-03-02T01:19:48;102444.88;;;20.61;93.38
42621;BME280;28252;53.336;-6.298;2023-03-02T01:20:22;102439.47;;;20.61;93.19
42621;BME280;28252;53.336;-6.298;2023-03-02T01:21:15;102437.78;;;20.60;93.73
42621;BME280;28252;53.336;-6.298;2023-03-02T01:21:48;102437.03;;;20.58;93.78
42621;BME280;28252;53.336;-6.298;2023-03-02T01:22:19;102435.19;;;20.59;93.79
42621;BME280;28252;53.336;-6.298;2023-03-02T01:22:51;102434.31;;;20.58;93.48
42621;BME280;28252;53.336;-6.298;2023-03-02T01:23:24;102437.03;;;20.58;93.51
42621;BME280;28252;53.336;-6.298;2023-03-02T01:23:55;102438.03;;;20.57;93.95
42621;BME280;28252;53.336;-6.298;2023-03-02T01:24:26;102437.16;;;20.57;93.46
42621;BME280;28252;53.336;-6.298;2023-03-02T01:24:57;102430.88;;;20.56;93.99
42621;BME280;28252;53.336;-6.298;2023-03-02T01:25:31;102436.28;;;20.56;93.22
42621;BME280;28252;53.336;-6.298;2023-03-02T01:26:04;102436.28;;;20.56;93.78
42621;BME280;28252;53.336;-6.298;2023-03-02T01:26:35;102437.31;;;20.55;93.86
42621;BME280;28252;53.336;-6.298;2023-03-02T01:27:06;102427.44;;;20.54;93.90
42621;BME280;28252;53.336;-6.298;2023-03-02T01:27:37;102432.88;;;20.54;93.83
42621;BME280;28252;53.336;-6.298;2023-03-02T01:28:08;102432.03;;;20.53;93.46
42621;BME280;28252;53.336;-6.298;2023-03-02T01:28:47;102429.44;;;20.52;93.71
42621;BME280;28252;53.336;-6.298;2023-03-02T01:29:18;102434.84;;;20.52;94.30
42621;BME280;28252;53.336;-6.298;2023-03-02T01:29:51;102430.41;;;20.51;94.08
42621;BME280;28252;53.336;-6.298;2023-03-02T01:30:24;102429.56;;;20.50;94.25
42621;BME280;28252;53.336;-6.298;2023-03-02T01:30:57;102433.13;;;20.51;94.13
42621;BME280;28252;53.336;-6.298;2023-03-02T01:31:34;102428.72;;;20.50;93.96
42621;BME280;28252;53.336;-6.298;2023-03-02T01:36:46;102428.22;;;20.45;94.17
42621;BME280;28252;53.336;-6.298;2023-03-02T01:37:17;102421.09;;;20.44;94.11
42621;BME280;28252;53.336;-6.298;2023-03-02T01:37:50;102422.97;;;20.43;95.31
42621;BME280;28252;53.336;-6.298;2023-03-02T01:38:20;102419.38;;;20.43;94.48
42621;BME280;28252;53.336;-6.298;2023-03-02T01:38:54;102418.41;;;20.44;94.69
42621;BME280;28252;53.336;-6.298;2023-03-02T01:39:27;102418.53;;;20.42;94.43
42621;BME280;28252;53.336;-6.298;2023-03-02T01:40:01;102420.38;;;20.42;95.26
42621;BME280;28252;53.336;-6.298;2023-03-02T01:40:40;102414.97;;;20.42;94.94
42621;BME280;28252;53.336;-6.298;2023-03-02T01:41:14;102424.91;;;20.41;95.09
42621;BME280;28252;53.336;-6.298;2023-03-02T01:41:50;102418.66;;;20.41;93.97
42621;BME280;28252;53.336;-6.298;2023-03-02T01:42:24;102414.22;;;20.40;94.53
42621;BME280;28252;53.336;-6.298;2023-03-02T01:42:59;102415.09;;;20.40;94.50
42621;BME280;28252;53.336;-6.298;2023-03-02T01:43:36;102419.63;;;20.40;94.85
42621;BME280;28252;53.336;-6.298;2023-03-02T01:44:30;102415.22;;;20.39;95.23
42621;BME280;28252;53.336;-6.298;2023-03-02T01:44:58;102413.50;;;20.38;95.34
42621;BME280;28252;53.336;-6.298;2023-03-02T01:45:53;102413.50;;;20.38;95.07
42621;BME280;28252;53.336;-6.298;2023-03-02T01:46:46;102411.78;;;20.37;95.09
42621;BME280;28252;53.336;-6.298;2023-03-02T01:48:08;102416.44;;;20.34;95.48
42621;BME280;28252;53.336;-6.298;2023-03-02T01:48:43;102406.50;;;20.35;94.65
42621;BME280;28252;53.336;-6.298;2023-03-02T01:49:17;102416.44;;;20.34;94.94
42621;BME280;28252;53.336;-6.298;2023-03-02T01:50:40;102398.66;;;20.32;95.17
42621;BME280;28252;53.336;-6.298;2023-03-02T01:51:13;102409.47;;;20.32;95.00
42621;BME280;28252;53.336;-6.298;2023-03-02T01:51:46;102409.59;;;20.30;95.31
42621;BME280;28252;53.336;-6.298;2023-03-02T01:52:20;102399.63;;;20.31;95.55
42621;BME280;28252;53.336;-6.298;2023-03-02T01:52:53;102406.88;;;20.30;95.47
42621;BME280;28252;53.336;-6.298;2023-03-02T01:58:00;102404.69;;;20.24;95.44
42621;BME280;28252;53.336;-6.298;2023-03-02T01:58:37;102401.00;;;20.25;95.56
42621;BME280;28252;53.336;-6.298;2023-03-02T01:59:16;102404.69;;;20.24;95.16
42621;BME280;28252;53.336;-6.298;2023-03-02T01:59:55;102401.00;;;20.25;95.01
42621;BME280;28252;53.336;-6.298;2023-03-02T02:00:37;102398.44;;;20.24;95.83
42621;BME280;28252;53.336;-6.298;2023-03-02T02:01:11;102396.72;;;20.23;95.68
42621;BME280;28252;53.336;-6.298;2023-03-02T02:01:49;102395.84;;;20.22;95.79
42621;BME280;28252;53.336;-6.298;2023-03-02T02:02:21;102395.00;;;20.22;95.55
42621;BME280;28252;53.336;-6.298;2023-03-02T02:02:56;102392.41;;;20.20;95.99
42621;BME280;28252;53.336;-6.298;2023-03-02T02:03:46;102394.16;;;20.21;96.04
42621;BME280;28252;53.336;-6.298;2023-03-02T02:04:23;102397.84;;;20.20;95.84
42621;BME280;28252;53.336;-6.298;2023-03-02T02:04:55;102392.41;;;20.20;95.36
42621;BME280;28252;53.336;-6.298;2023-03-02T02:05:30;102382.56;;;20.19;95.73
42621;BME280;28252;53.336;-6.298;2023-03-02T02:06:41;102386.28;;;20.18;95.74
42621;BME280;28252;53.336;-6.298;2023-03-02T02:07:16;102389.00;;;20.18;95.87
42621;BME280;28252;53.336;-6.298;2023-03-02T02:07:47;102381.72;;;20.19;95.60
42621;BME280;28252;53.336;-6.298;2023-03-02T02:08:19;102378.16;;;20.18;95.86
42621;BME280;28252;53.336;-6.298;2023-03-02T02:08:55;102375.59;;;20.17;95.93
42621;BME280;28252;53.336;-6.298;2023-03-02T02:09:32;102382.84;;;20.16;95.75
42621;BME280;28252;53.336;-6.298;2023-03-02T02:10:06;102385.56;;;20.16;96.08
42621;BME280;28252;53.336;-6.298;2023-03-02T02:10:40;102383.84;;;20.15;96.11
42621;BME280;28252;53.336;-6.298;2023-03-02T02:11:13;102380.28;;;20.14;95.61
42621;BME280;28252;53.336;-6.298;2023-03-02T02:11:44;102383.84;;;20.15;95.72
42621;BME280;28252;53.336;-6.298;2023-03-02T02:12:17;102380.28;;;20.14;95.84
42621;BME280;28252;53.336;-6.298;2023-03-02T02:12:49;102381.97;;;20.15;96.11
42621;BME280;28252;53.336;-6.298;2023-03-02T02:13:25;102383.97;;;20.13;96.01
42621;BME280;28252;53.336;-6.298;2023-03-02T02:13:59;102380.41;;;20.13;96.33
42621;BME280;28252;53.336;-6.298;2023-03-02T02:14:32;102387.63;;;20.12;95.86
42621;BME280;28252;53.336;-6.298;2023-03-02T02:20:54;102376.34;;;20.07;96.13
42621;BME280;28252;53.336;-6.298;2023-03-02T02:21:25;102371.81;;;20.08;95.96
42621;BME280;28252;53.336;-6.298;2023-03-02T02:22:02;102371.81;;;20.08;96.16
42621;BME280;28252;53.336;-6.298;2023-03-02T02:23:28;102371.09;;;20.06;96.86
42621;BME280;28252;53.336;-6.298;2023-03-02T02:24:23;102363.94;;;20.05;96.30
42621;BME280;28252;53.336;-6.298;2023-03-02T02:25:02;102369.38;;;20.05;96.37
42621;BME280;28252;53.336;-6.298;2023-03-02T02:25:42;102363.22;;;20.03;96.46
42621;BME280;28252;53.336;-6.298;2023-03-02T02:26:27;102364.06;;;20.03;96.17
42621;BME280;28252;53.336;-6.298;2023-03-02T02:27:02;102367.75;;;20.02;97.07
42621;BME280;28252;53.336;-6.298;2023-03-02T02:27:38;102361.50;;;20.02;96.47
42621;BME280;28252;53.336;-6.298;2023-03-02T02:28:15;102366.91;;;20.02;96.52
42621;BME280;28252;53.336;-6.298;2023-03-02T02:28:53;102365.22;;;20.01;96.64
42621;BME280;28252;53.336;-6.298;2023-03-02T02:29:29;102362.50;;;20.01;96.17
42621;BME280;28252;53.336;-6.298;2023-03-02T02:30:05;102360.78;;;20.00;96.34
42621;BME280;28252;53.336;-6.298;2023-03-02T02:30:38;102369.00;;;19.98;96.82
42621;BME280;28252;53.336;-6.298;2023-03-02T02:31:16;102365.47;;;19.98;96.67
42621;BME280;28252;53.336;-6.298;2023-03-02T02:31:55;102360.06;;;19.98;96.61
42621;BME280;28252;53.336;-6.298;2023-03-02T02:32:27;102362.75;;;19.98;96.30
42621;BME280;28252;53.336;-6.298;2023-03-02T02:33:04;102364.56;;;19.97;96.23
42621;BME280;28252;53.336;-6.298;2023-03-02T02:33:38;102364.56;;;19.97;96.37
42621;BME280;28252;53.336;-6.298;2023-03-02T02:35:07;102362.03;;;19.95;96.75
42621;BME280;28252;53.336;-6.298;2023-03-02T02:35:47;102360.31;;;19.94;96.92
42621;BME280;28252;53.336;-6.298;2023-03-02T02:36:25;102355.88;;;19.93;97.14
42621;BME280;28252;53.336;-6.298;2023-03-02T02:37:19;102359.44;;;19.94;96.59
42621;BME280;28252;53.336;-6.298;2023-03-02T02:37:57;102363.00;;;19.94;96.66
42621;BME280;28252;53.336;-6.298;2023-03-02T02:38:36;102357.72;;;19.93;96.80
42621;BME280;28252;53.336;-6.298;2023-03-02T02:39:13;102357.72;;;19.93;96.77
42621;BME280;28252;53.336;-6.298;2023-03-02T02:39:50;102351.47;;;19.92;96.91
42621;BME280;28252;53.336;-6.298;2023-03-02T02:40:47;102352.44;;;19.91;96.42
42621;BME280;28252;53.336;-6.298;2023-03-02T02:41:25;102348.03;;;19.90;96.88
42621;BME280;28252;53.336;-6.298;2023-03-02T02:41:59;102351.72;;;19.89;96.86
42621;BME280;28252;53.336;-6.298;2023-03-02T02:42:36;102347.16;;;19.90;96.99
42621;BME280;28252;53.336;-6.298;2023-03-02T02:43:09;102348.03;;;19.90;96.66
42621;BME280;28252;53.336;-6.298;2023-03-02T02:43:42;102338.31;;;19.88;97.73
42621;BME280;28252;53.336;-6.298;2023-03-02T02:44:13;102343.72;;;19.88;97.19
42621;BME280;28252;53.336;-6.298;2023-03-02T02:46:09;102340.19;;;19.87;97.35
42621;BME280;28252;53.336;-6.298;2023-03-02T02:46:44;102341.16;;;19.86;96.83
42621;BME280;28252;53.336;-6.298;2023-03-02T02:47:17;102337.59;;;19.86;96.99
42621;BME280;28252;53.336;-6.298;2023-03-02T02:47:50;102338.56;;;19.85;97.39
42621;BME280;28252;53.336;-6.298;2023-03-02T02:48:25;102337.72;;;19.84;97.35
42621;BME280;28252;53.336;-6.298;2023-03-02T02:49:04;102343.13;;;19.84;96.98
42621;BME280;28252;53.336;-6.298;2023-03-02T02:49:41;102337.72;;;19.84;96.65
42621;BME280;28252;53.336;-6.298;2023-03-02T02:50:22;102336.88;;;19.84;97.26
42621;BME280;28252;53.336;-6.298;2023-03-02T02:50:56;102336.88;;;19.84;96.57
42621;BME280;28252;53.336;-6.298;2023-03-02T02:51:33;102336.00;;;19.83;96.90
42621;BME280;28252;53.336;-6.298;2023-03-02T02:52:09;102332.44;;;19.83;96.90
42621;BME280;28252;53.336;-6.298;2023-03-02T02:52:46;102335.13;;;19.83;96.80
42621;BME280;28252;53.336;-6.298;2023-03-02T02:53:23;102330.84;;;19.80;97.45
42621;BME280;28252;53.336;-6.298;2023-03-02T02:54:02;102327.16;;;19.81;97.13
42621;BME280;28252;53.336;-6.298;2023-03-02T02:54:42;102320.91;;;19.81;97.04
42621;BME280;28252;53.336;-6.298;2023-03-02T02:55:19;102334.41;;;19.81;96.91
42621;BME280;28252;53.336;-6.298;2023-03-02T02:55:56;102329.13;;;19.79;97.21
42621;BME280;28252;53.336;-6.298;2023-03-02T02:56:29;102327.41;;;19.78;97.60
42621;BME280;28252;53.336;-6.298;2023-03-02T02:57:01;102329.13;;;19.79;96.94
42621;BME280;28252;53.336;-6.298;2023-03-02T02:57:36;102331.00;;;19.78;97.03
42621;BME280;28252;53.336;-6.298;2023-03-02T02:58:51;102333.69;;;19.78;96.96
42621;BME280;28252;53.336;-6.298;2023-03-02T02:59:27;102332.81;;;19.78;97.02
42621;BME280;28252;53.336;-6.298;2023-03-02T03:00:01;102331.13;;;19.77;97.17
42621;BME280;28252;53.336;-6.298;2023-03-02T03:00:40;102333.94;;;19.75;97.65
42621;BME280;28252;53.336;-6.298;2023-03-02T03:01:15;102330.34;;;19.75;96.84
42621;BME280;28252;53.336;-6.298;2023-03-02T03:01:47;102328.53;;;19.75;96.98
42621;BME280;28252;53.336;-6.298;2023-03-02T03:02:19;102333.06;;;19.75;97.14
42621;BME280;28252;53.336;-6.298;2023-03-02T03:02:57;102330.34;;;19.75;97.51
42621;BME280;28252;53.336;-6.298;2023-03-02T03:03:35;102328.63;;;19.74;97.41
42621;BME280;28252;53.336;-6.298;2023-03-02T03:04:12;102325.94;;;19.74;97.11
42621;BME280;28252;53.336;-6.298;2023-03-02T03:04:48;102328.63;;;19.74;97.21
42621;BME280;28252;53.336;-6.298;2023-03-02T03:08:54;102326.16;;;19.71;97.11
42621;BME280;28252;53.336;-6.298;2023-03-02T03:09:34;102331.56;;;19.71;97.42
42621;BME280;28252;53.336;-6.298;2023-03-02T03:10:44;102328.88;;;19.71;97.57
42621;BME280;28252;53.336;-6.298;2023-03-02T03:11:18;102323.59;;;19.69;97.17
42621;BME280;28252;53.336;-6.298;2023-03-02T03:11:59;102328.16;;;19.69;97.39
42621;BME280;28252;53.336;-6.298;2023-03-02T03:12:33;102329.00;;;19.69;97.58
42621;BME280;28252;53.336;-6.298;2023-03-02T03:13:07;102328.16;;;19.69;97.70
42621;BME280;28252;53.336;-6.298;2023-03-02T03:13:42;102326.41;;;19.68;97.19
42621;BME280;28252;53.336;-6.298;2023-03-02T03:14:15;102323.84;;;19.66;97.45
42621;BME280;28252;53.336;-6.298;2023-03-02T03:14:48;102316.63;;;19.67;97.39
42621;BME280;28252;53.336;-6.298;2023-03-02T03:15:23;102324.72;;;19.67;97.97
42621;BME280;28252;53.336;-6.298;2023-03-02T03:15:58;102323.84;;;19.66;97.08
42621;BME280;28252;53.336;-6.298;2023-03-02T03:16:30;102328.41;;;19.66;97.59
42621;BME280;28252;53.336;-6.298;2023-03-02T03:17:05;102317.47;;;19.67;97.24
42621;BME280;28252;53.336;-6.298;2023-03-02T03:17:54;102320.28;;;19.66;98.00
42621;BME280;28252;53.336;-6.298;2023-03-02T03:18:31;102323.00;;;19.66;97.63
42621;BME280;28252;53.336;-6.298;2023-03-02T03:19:12;102315.84;;;19.65;97.89
42621;BME280;28252;53.336;-6.298;2023-03-02T03:19:45;102320.53;;;19.63;98.19
42621;BME280;28252;53.336;-6.298;2023-03-02T03:20:17;102317.84;;;19.63;97.79
42621;BME280;28252;53.336;-6.298;2023-03-02T03:20:51;102315.25;;;19.61;97.78
42621;BME280;28252;53.336;-6.298;2023-03-02T03:21:25;102320.53;;;19.63;97.52
42621;BME280;28252;53.336;-6.298;2023-03-02T03:21:58;102316.13;;;19.62;98.64
42621;BME280;28252;53.336;-6.298;2023-03-02T03:22:37;102310.72;;;19.62;98.14
42621;BME280;28252;53.336;-6.298;2023-03-02T03:23:13;102316.13;;;19.62;97.99
42621;BME280;28252;53.336;-6.298;2023-03-02T03:23:44;102317.09;;;19.60;98.20
42621;BME280;28252;53.336;-6.298;2023-03-02T03:24:23;102316.25;;;19.60;98.53
42621;BME280;28252;53.336;-6.298;2023-03-02T03:25:00;102321.78;;;19.58;98.91
42621;BME280;28252;53.336;-6.298;2023-03-02T03:25:31;102313.81;;;19.57;99.15
42621;BME280;28252;53.336;-6.298;2023-03-02T03:26:08;102312.06;;;19.56;98.82
42621;BME280;28252;53.336;-6.298;2023-03-02T03:26:48;102315.50;;;19.58;98.07
42621;BME280;28252;53.336;-6.298;2023-03-02T03:27:25;102318.22;;;19.58;98.23
42621;BME280;28252;53.336;-6.298;2023-03-02T03:28:03;102318.38;;;19.56;98.03
42621;BME280;28252;53.336;-6.298;2023-03-02T03:28:38;102312.97;;;19.56;98.74
42621;BME280;28252;53.336;-6.298;2023-03-02T03:29:11;102318.38;;;19.56;98.40
42621;BME280;28252;53.336;-6.298;2023-03-02T03:29:46;102312.97;;;19.56;97.77
42621;BME280;28252;53.336;-6.298;2023-03-02T03:30:22;102312.97;;;19.56;97.72
42621;BME280;28252;53.336;-6.298;2023-03-02T03:30:54;102312.97;;;19.56;97.84
42621;BME280;28252;53.336;-6.298;2023-03-02T03:31:26;102312.97;;;19.56;97.71